createdAt,value
2018-04-10T00:02:20.918Z,57.00
2018-04-10T00:04:54.701Z,57.00
2018-04-10T00:07:29.145Z,57.20
2018-04-10T00:10:02.830Z,57.20
2018-04-10T00:12:36.551Z,57.50
2018-04-10T00:15:11.087Z,57.60
2018-04-10T00:17:44.980Z,57.90
2018-04-10T00:20:18.631Z,58.00
2018-04-10T00:22:52.383Z,58.40
2018-04-10T00:25:26.083Z,58.00
2018-04-10T00:27:59.590Z,58.70
2018-04-10T00:30:33.286Z,58.90
2018-04-10T00:33:06.858Z,59.00
2018-04-10T00:35:40.474Z,59.20
2018-04-10T00:38:14.202Z,59.40
2018-04-10T00:40:48.414Z,59.40
2018-04-10T00:43:22.083Z,59.50
2018-04-10T00:45:55.845Z,59.40
2018-04-10T00:48:30.309Z,60.60
2018-04-10T00:51:04.126Z,59.60
2018-04-10T00:53:37.711Z,59.80
2018-04-10T00:56:11.446Z,59.90
2018-04-10T00:58:45.055Z,59.90
2018-04-10T01:01:18.557Z,60.00
2018-04-10T01:03:52.251Z,59.70
2018-04-10T01:06:26.058Z,60.00
2018-04-10T01:08:59.570Z,59.80
2018-04-10T01:11:34.067Z,60.00
2018-04-10T01:14:07.885Z,60.00
2018-04-10T01:16:41.691Z,60.00
2018-04-10T01:19:15.973Z,60.30
2018-04-10T01:21:50.526Z,60.90
2018-04-10T01:24:24.139Z,60.00
2018-04-10T01:26:57.766Z,60.10
2018-04-10T01:29:31.535Z,60.00
2018-04-10T01:32:05.949Z,60.10
2018-04-10T01:34:39.754Z,60.00
2018-04-10T01:37:13.566Z,60.00
2018-04-10T01:39:47.577Z,60.00
2018-04-10T01:42:21.386Z,60.00
2018-04-10T01:44:55.002Z,60.00
2018-04-10T01:47:28.688Z,59.90
2018-04-10T01:50:02.594Z,59.90
2018-04-10T01:52:36.262Z,59.80
2018-04-10T01:55:09.886Z,60.00
2018-04-10T01:57:43.671Z,59.90
2018-04-10T02:00:17.405Z,59.80
2018-04-10T02:02:51.034Z,60.00
2018-04-10T02:05:24.698Z,60.00
2018-04-10T02:07:58.405Z,59.90
2018-04-10T02:10:32.039Z,59.90
2018-04-10T02:13:05.823Z,60.00
2018-04-10T02:15:39.627Z,59.90
2018-04-10T02:18:13.138Z,59.70
2018-04-10T02:20:46.826Z,59.80
2018-04-10T02:23:20.627Z,60.10
2018-04-10T02:25:54.364Z,60.30
2018-04-10T02:28:28.038Z,60.00
2018-04-10T02:31:01.644Z,60.40
2018-04-10T02:33:35.239Z,60.50
2018-04-10T02:36:08.849Z,60.30
2018-04-10T02:38:42.645Z,60.30
2018-04-10T02:41:16.182Z,60.30
2018-04-10T02:43:49.718Z,60.40
2018-04-10T02:46:23.255Z,60.60
2018-04-10T02:48:56.917Z,60.60
2018-04-10T02:51:30.572Z,60.50
2018-04-10T02:54:04.249Z,60.40
2018-04-10T02:56:37.958Z,60.50
2018-04-10T02:59:11.747Z,60.40
2018-04-10T03:01:45.465Z,61.20
2018-04-10T03:04:19.062Z,61.00
2018-04-10T03:06:53.690Z,61.60
2018-04-10T03:09:27.494Z,61.50
2018-04-10T03:12:01.298Z,61.30
2018-04-10T03:14:35.106Z,61.60
2018-04-10T03:17:09.621Z,61.80
2018-04-10T03:19:43.335Z,61.70
2018-04-10T03:22:17.028Z,61.60
2018-04-10T03:24:50.732Z,62.10
2018-04-10T03:27:24.477Z,61.90
2018-04-10T03:29:58.134Z,62.00
2018-04-10T03:32:32.157Z,61.90
2018-04-10T03:35:05.779Z,62.10
2018-04-10T03:37:39.356Z,62.20
2018-04-10T03:40:12.970Z,62.40
2018-04-10T03:42:46.753Z,62.30
2018-04-10T03:45:20.365Z,62.30
2018-04-10T03:47:54.180Z,62.30
2018-04-10T03:50:27.994Z,62.60
2018-04-10T03:53:02.618Z,62.60
2018-04-10T03:55:36.399Z,62.50
2018-04-10T03:58:10.942Z,62.40
2018-04-10T04:00:44.430Z,62.50
2018-04-10T04:03:18.742Z,62.30
2018-04-10T04:05:53.257Z,62.60
2018-04-10T04:08:26.773Z,62.60
2018-04-10T04:11:00.459Z,62.90
2018-04-10T04:13:34.106Z,63.20
2018-04-10T04:16:08.119Z,63.30
2018-04-10T04:18:53.618Z,63.40
2018-04-10T04:24:30.013Z,63.30
2018-04-10T04:27:03.605Z,63.90
2018-04-10T04:29:37.447Z,64.00
2018-04-10T04:32:11.258Z,64.20
2018-04-10T04:34:44.970Z,64.30
2018-04-10T04:37:18.669Z,64.40
2018-04-10T04:39:52.302Z,64.90
2018-04-10T04:42:26.061Z,65.10
2018-04-10T04:44:59.869Z,65.20
2018-04-10T04:47:33.683Z,65.40
2018-04-10T04:50:07.282Z,65.80
2018-04-10T04:52:40.883Z,65.50
2018-04-10T04:55:14.708Z,65.70
2018-04-10T04:57:48.483Z,65.70
2018-04-10T05:00:22.901Z,66.00
2018-04-10T05:02:56.709Z,66.00
2018-04-10T05:05:31.038Z,65.90
2018-04-10T05:08:04.814Z,65.90
2018-04-10T05:10:38.533Z,66.20
2018-04-10T05:13:12.214Z,66.50
2018-04-10T05:15:45.942Z,66.20
2018-04-10T05:18:20.446Z,66.60
2018-04-10T05:20:54.180Z,66.50
2018-04-10T05:23:27.978Z,66.60
2018-04-10T05:26:01.674Z,66.70
2018-04-10T05:28:35.345Z,66.70
2018-04-10T05:31:08.963Z,66.80
2018-04-10T05:33:42.651Z,66.90
2018-04-10T05:36:16.385Z,66.90
2018-04-10T05:38:50.199Z,66.70
2018-04-10T05:41:24.002Z,67.00
2018-04-10T05:43:57.803Z,66.90
2018-04-10T05:46:31.499Z,66.50
2018-04-10T05:49:05.078Z,66.60
2018-04-10T05:51:39.635Z,66.50
2018-04-10T05:54:13.298Z,66.30
2018-04-10T05:56:46.865Z,66.40
2018-04-10T05:59:20.438Z,66.60
2018-04-10T06:01:54.850Z,67.20
2018-04-10T06:04:28.666Z,66.40
2018-04-10T06:07:02.471Z,66.10
2018-04-10T06:09:36.061Z,66.10
2018-04-10T06:12:09.867Z,66.10
2018-04-10T06:14:43.560Z,66.20
2018-04-10T06:17:17.167Z,66.60
2018-04-10T06:19:50.874Z,66.30
2018-04-10T06:22:24.527Z,66.30
2018-04-10T06:24:58.291Z,66.10
2018-04-10T06:27:32.594Z,65.80
2018-04-10T06:30:06.993Z,66.10
2018-04-10T06:32:40.934Z,65.90
2018-04-10T06:35:14.603Z,65.80
2018-04-10T06:37:48.218Z,65.60
2018-04-10T06:40:21.950Z,65.10
2018-04-10T06:42:55.614Z,65.10
2018-04-10T06:45:30.042Z,65.20
2018-04-10T06:48:03.736Z,65.10
2018-04-10T06:50:37.374Z,63.90
2018-04-10T06:53:10.973Z,63.30
2018-04-10T06:55:44.719Z,62.70
2018-04-10T06:58:18.374Z,63.10
2018-04-10T07:00:52.179Z,62.10
2018-04-10T07:03:25.807Z,61.50
2018-04-10T07:05:59.364Z,60.60
2018-04-10T07:08:33.690Z,61.50
2018-04-10T07:11:07.217Z,61.50
2018-04-10T07:13:41.000Z,61.20
2018-04-10T07:16:14.801Z,59.80
2018-04-10T07:18:49.125Z,60.20
2018-04-10T07:21:22.654Z,60.10
2018-04-10T07:23:56.241Z,59.50
2018-04-10T07:26:29.893Z,59.20
2018-04-10T07:29:04.425Z,59.50
2018-04-10T07:31:38.256Z,59.40
2018-04-10T07:34:12.771Z,58.90
2018-04-10T07:36:46.484Z,58.90
2018-04-10T07:39:20.082Z,58.70
2018-04-10T07:41:54.578Z,58.10
2018-04-10T07:44:28.273Z,58.20
2018-04-10T07:47:02.106Z,58.40
2018-04-10T07:49:35.918Z,58.10
2018-04-10T07:52:09.511Z,58.00
2018-04-10T07:54:43.047Z,58.00
2018-04-10T07:57:16.526Z,57.70
2018-04-10T07:59:50.197Z,57.30
2018-04-10T08:02:23.822Z,57.20
2018-04-10T08:04:57.521Z,56.20
2018-04-10T08:07:32.021Z,55.00
2018-04-10T08:10:05.711Z,55.00
2018-04-10T08:12:39.546Z,55.70
2018-04-10T08:15:13.358Z,54.90
2018-04-10T08:17:46.862Z,55.30
2018-04-10T08:20:20.559Z,55.50
2018-04-10T08:22:54.227Z,55.50
2018-04-10T08:25:27.966Z,54.80
2018-04-10T08:28:01.976Z,54.50
2018-04-10T08:30:35.781Z,54.20
2018-04-10T08:33:09.486Z,54.90
2018-04-10T08:37:45.338Z,53.90
2018-04-10T08:40:19.260Z,53.90
2018-04-10T08:42:52.864Z,54.40
2018-04-10T08:45:26.634Z,53.90
2018-04-10T08:48:00.130Z,53.70
2018-04-10T08:50:33.832Z,53.70
2018-04-10T08:53:07.469Z,53.70
2018-04-10T08:55:41.271Z,53.70
2018-04-10T08:58:15.279Z,53.30
2018-04-10T09:00:48.983Z,53.20
2018-04-10T09:03:22.895Z,53.50
2018-04-10T09:05:57.198Z,53.80
2018-04-10T09:08:31.114Z,53.20
2018-04-10T09:11:04.644Z,52.40
2018-04-10T09:13:38.314Z,52.40
2018-04-10T09:16:11.969Z,53.60
2018-04-10T09:18:45.542Z,52.10
2018-04-10T09:21:19.331Z,51.60
2018-04-10T09:23:53.134Z,52.90
2018-04-10T09:26:26.822Z,51.30
2018-04-10T09:29:01.226Z,50.60
2018-04-10T09:31:34.950Z,50.50
2018-04-10T09:34:08.758Z,50.60
2018-04-10T09:36:43.187Z,50.80
2018-04-10T09:39:16.981Z,50.60
2018-04-10T09:41:50.499Z,51.40
2018-04-10T09:44:24.059Z,52.70
2018-04-10T09:46:58.615Z,52.40
2018-04-10T09:49:32.307Z,52.40
2018-04-10T09:52:06.018Z,52.20
2018-04-10T09:54:39.686Z,52.50
2018-04-10T09:57:13.411Z,51.70
2018-04-10T09:59:47.126Z,51.90
2018-04-10T10:02:20.830Z,51.90
2018-04-10T10:04:54.502Z,51.60
2018-04-10T10:07:28.942Z,52.30
2018-04-10T10:10:02.658Z,51.80
2018-04-10T10:12:36.287Z,50.60
2018-04-10T10:15:09.862Z,50.80
2018-04-10T10:17:43.458Z,49.80
2018-04-10T10:20:17.068Z,47.80
2018-04-10T10:22:50.957Z,47.90
2018-04-10T10:25:25.490Z,48.20
2018-04-10T10:27:59.289Z,48.20
2018-04-10T10:30:33.106Z,49.00
2018-04-10T10:33:07.694Z,47.90
2018-04-10T10:35:42.842Z,46.50
2018-04-10T10:38:16.422Z,46.40
2018-04-10T10:40:49.963Z,46.80
2018-04-10T10:43:23.766Z,47.50
2018-04-10T10:45:57.367Z,47.10
2018-04-10T10:48:32.609Z,45.70
2018-04-10T10:51:06.254Z,45.60
2018-04-10T10:53:39.907Z,45.50
2018-04-10T10:56:13.606Z,46.50
2018-04-10T10:58:48.117Z,46.40
2018-04-10T11:01:22.655Z,46.60
2018-04-10T11:03:56.292Z,46.60
2018-04-10T11:06:30.181Z,45.30
2018-04-10T11:09:03.793Z,45.30
2018-04-10T11:11:37.282Z,44.70
2018-04-10T11:14:11.066Z,44.00
2018-04-10T11:16:44.870Z,43.00
2018-04-10T11:19:18.584Z,43.20
2018-04-10T11:21:52.417Z,44.40
2018-04-10T11:24:26.109Z,43.40
2018-04-10T11:27:00.514Z,43.10
2018-04-10T11:29:34.193Z,43.10
2018-04-10T11:32:07.778Z,42.70
2018-04-10T11:34:41.723Z,42.80
2018-04-10T11:37:16.166Z,42.80
2018-04-10T11:42:52.390Z,43.10
2018-04-10T11:45:26.119Z,42.10
2018-04-10T11:47:59.793Z,42.30
2018-04-10T11:50:33.458Z,41.60
2018-04-10T11:53:07.019Z,42.70
2018-04-10T11:55:40.822Z,42.10
2018-04-10T11:58:15.214Z,41.30
2018-04-10T12:00:48.877Z,41.00
2018-04-10T12:03:22.650Z,41.60
2018-04-10T12:05:56.379Z,41.00
2018-04-10T12:08:30.054Z,41.90
2018-04-10T12:11:04.360Z,41.80
2018-04-10T12:13:37.914Z,41.80
2018-04-10T12:16:11.450Z,41.00
2018-04-10T12:18:44.950Z,40.90
2018-04-10T12:21:18.502Z,40.90
2018-04-10T12:23:52.270Z,41.40
2018-04-10T12:26:26.778Z,41.80
2018-04-10T12:29:00.693Z,41.80
2018-04-10T12:31:34.215Z,40.80
2018-04-10T12:34:07.975Z,41.20
2018-04-10T12:36:41.755Z,40.40
2018-04-10T12:39:15.454Z,40.40
2018-04-10T12:41:49.900Z,40.30
2018-04-10T12:44:23.738Z,40.30
2018-04-10T12:46:57.542Z,39.10
2018-04-10T12:49:31.350Z,39.10
2018-04-10T12:52:04.999Z,39.90
2018-04-10T12:54:38.751Z,39.60
2018-04-10T12:57:12.554Z,40.20
2018-04-10T12:59:46.366Z,39.10
2018-04-10T13:02:20.195Z,39.20
2018-04-10T13:04:53.969Z,39.20
2018-04-10T13:07:27.666Z,39.10
2018-04-10T13:10:01.221Z,39.40
2018-04-10T13:12:35.627Z,38.00
2018-04-10T13:15:09.209Z,38.00
2018-04-10T13:17:43.817Z,39.40
2018-04-10T13:20:17.634Z,39.40
2018-04-10T13:22:51.232Z,38.60
2018-04-10T13:25:25.030Z,38.60
2018-04-10T13:27:58.842Z,37.90
2018-04-10T13:30:32.610Z,37.50
2018-04-10T13:33:06.245Z,37.60
2018-04-10T13:35:40.249Z,37.40
2018-04-10T13:38:13.865Z,37.50
2018-04-10T13:40:47.459Z,37.70
2018-04-10T13:43:21.275Z,37.80
2018-04-10T13:45:55.072Z,36.80
2018-04-10T13:48:28.693Z,37.40
2018-04-10T13:51:02.502Z,38.20
2018-04-10T13:53:36.122Z,38.30
2018-04-10T13:56:10.082Z,37.40
2018-04-10T13:58:43.886Z,36.80
2018-04-10T14:01:17.701Z,37.20
2018-04-10T14:03:51.321Z,37.00
2018-04-10T14:06:24.855Z,37.30
2018-04-10T14:08:58.503Z,37.50
2018-04-10T14:11:32.099Z,36.90
2018-04-10T14:14:06.117Z,36.10
2018-04-10T14:16:39.710Z,37.50
2018-04-10T14:19:13.522Z,35.80
2018-04-10T14:21:47.173Z,36.40
2018-04-10T14:24:20.953Z,36.30
2018-04-10T14:26:54.527Z,38.00
2018-04-10T14:29:28.330Z,36.70
2018-04-10T14:32:02.130Z,37.70
2018-04-10T14:34:36.650Z,37.60
2018-04-10T14:37:10.182Z,37.50
2018-04-10T14:39:44.457Z,37.50
2018-04-10T14:42:18.418Z,37.40
2018-04-10T14:44:52.106Z,38.00
2018-04-10T14:47:25.791Z,38.10
2018-04-10T14:49:59.605Z,37.10
2018-04-10T14:52:33.262Z,38.00
2018-04-10T14:55:06.910Z,37.30
2018-04-10T14:57:40.463Z,38.40
2018-04-10T15:00:13.993Z,37.80
2018-04-10T15:02:47.666Z,38.00
2018-04-10T15:05:21.230Z,37.40
2018-04-10T15:07:54.852Z,37.90
2018-04-10T15:10:28.601Z,38.40
2018-04-10T15:13:02.275Z,37.40
2018-04-10T15:15:36.815Z,37.80
2018-04-10T15:18:10.465Z,37.80
2018-04-10T15:20:44.139Z,38.30
2018-04-10T15:23:18.033Z,38.20
2018-04-10T15:25:51.554Z,38.10
2018-04-10T15:28:25.061Z,37.40
2018-04-10T15:30:58.847Z,36.70
2018-04-10T15:33:32.594Z,37.00
2018-04-10T15:36:06.246Z,36.90
2018-04-10T15:38:39.845Z,38.00
2018-04-10T15:41:13.653Z,37.90
2018-04-10T15:43:47.455Z,37.20
2018-04-10T15:46:21.878Z,37.80
2018-04-10T15:48:55.479Z,37.70
2018-04-10T15:51:30.000Z,37.00
2018-04-10T15:54:03.701Z,36.90
2018-04-10T15:56:37.510Z,36.90
2018-04-10T15:59:11.110Z,37.00
2018-04-10T16:01:45.688Z,37.20
2018-04-10T16:04:20.158Z,37.60
2018-04-10T16:06:53.953Z,37.60
2018-04-10T16:09:27.673Z,38.00
2018-04-10T16:12:01.254Z,37.20
2018-04-10T16:14:34.970Z,37.30
2018-04-10T16:17:08.548Z,38.40
2018-04-10T16:19:42.378Z,38.30
2018-04-10T16:22:16.145Z,38.20
2018-04-10T16:24:49.784Z,38.60
2018-04-10T16:27:23.382Z,39.20
2018-04-10T16:29:57.219Z,39.40
2018-04-10T16:32:31.806Z,39.40
2018-04-10T16:35:06.226Z,40.00
2018-04-10T16:37:39.934Z,39.90
2018-04-10T16:40:13.865Z,39.60
2018-04-10T16:42:48.153Z,40.10
2018-04-10T16:45:21.870Z,40.10
2018-04-10T16:47:55.693Z,40.40
2018-04-10T16:50:29.261Z,40.40
2018-04-10T16:53:03.073Z,40.50
2018-04-10T16:55:37.541Z,40.00
2018-04-10T16:58:11.302Z,39.70
2018-04-10T17:00:44.801Z,40.10
2018-04-10T17:03:18.390Z,39.70
2018-04-10T17:05:52.107Z,40.10
2018-04-10T17:08:26.415Z,40.60
2018-04-10T17:11:00.124Z,40.50
2018-04-10T17:13:33.709Z,40.60
2018-04-10T17:16:07.797Z,40.30
2018-04-10T17:18:41.556Z,40.40
2018-04-10T17:21:15.214Z,40.50
2018-04-10T17:23:48.737Z,40.60
2018-04-10T17:26:23.029Z,40.20
2018-04-10T17:28:56.775Z,40.30
2018-04-10T17:31:30.306Z,40.40
2018-04-10T17:34:03.835Z,40.80
2018-04-10T17:36:38.374Z,41.00
2018-04-10T17:39:12.070Z,41.00
2018-04-10T17:41:45.622Z,41.50
2018-04-10T17:44:20.070Z,42.00
2018-04-10T17:46:53.805Z,42.00
2018-04-10T17:49:27.614Z,42.20
2018-04-10T17:52:01.109Z,42.60
2018-04-10T17:54:35.605Z,42.90
2018-04-10T17:57:09.237Z,43.00
2018-04-10T17:59:43.109Z,43.40
2018-04-10T18:02:16.843Z,43.90
2018-04-10T18:04:50.674Z,43.60
2018-04-10T18:07:24.333Z,44.00
2018-04-10T18:09:58.249Z,43.90
2018-04-10T18:12:32.088Z,44.00
2018-04-10T18:15:05.681Z,44.40
2018-04-10T18:17:40.977Z,44.70
2018-04-10T18:20:15.532Z,44.90
2018-04-10T18:22:49.340Z,44.90
2018-04-10T18:25:22.869Z,45.30
2018-04-10T18:27:56.750Z,45.30
2018-04-10T18:30:30.305Z,45.70
2018-04-10T18:33:04.150Z,46.70
2018-04-10T18:35:38.770Z,48.30
2018-04-10T18:38:12.574Z,48.30
2018-04-10T18:40:46.390Z,48.80
2018-04-10T18:43:21.007Z,49.50
2018-04-10T18:45:54.607Z,49.40
2018-04-10T18:48:28.214Z,49.70
2018-04-10T18:51:01.781Z,50.00
2018-04-10T18:53:35.525Z,49.40
2018-04-10T18:56:09.418Z,49.50
2018-04-10T18:58:43.221Z,49.70
2018-04-10T19:01:17.530Z,50.50
2018-04-10T19:03:51.452Z,50.50
2018-04-10T19:06:25.762Z,51.10
2018-04-10T19:08:59.537Z,51.00
2018-04-10T19:11:33.370Z,51.10
2018-04-10T19:14:07.298Z,51.70
2018-04-10T19:16:41.049Z,51.50
2018-04-10T19:19:14.762Z,51.40
2018-04-10T19:21:48.547Z,50.90
2018-04-10T19:24:22.370Z,50.90
2018-04-10T19:26:56.193Z,50.90
2018-04-10T19:29:29.734Z,50.90
2018-04-10T19:32:03.523Z,51.10
2018-04-10T19:34:37.325Z,51.30
2018-04-10T19:37:11.151Z,51.30
2018-04-10T19:39:44.708Z,51.40
2018-04-10T19:42:18.420Z,51.60
2018-04-10T19:44:52.125Z,51.60
2018-04-10T19:47:25.697Z,52.20
2018-04-10T19:49:59.442Z,52.80
2018-04-10T19:52:33.030Z,53.20
2018-04-10T19:55:06.699Z,53.20
2018-04-10T19:57:40.337Z,53.20
2018-04-10T20:00:13.909Z,53.40
2018-04-10T20:02:47.523Z,53.30
2018-04-10T20:05:21.350Z,53.00
2018-04-10T20:07:55.643Z,53.00
2018-04-10T20:10:30.058Z,53.00
2018-04-10T20:13:03.605Z,53.00
2018-04-10T20:15:37.296Z,53.20
2018-04-10T20:18:11.202Z,53.20
2018-04-10T20:20:44.867Z,53.10
2018-04-10T20:23:18.603Z,53.30
2018-04-10T20:25:52.306Z,53.60
2018-04-10T20:28:26.010Z,53.50
2018-04-10T20:30:59.605Z,53.40
2018-04-10T20:33:33.414Z,54.10
2018-04-10T20:36:07.015Z,54.30
2018-04-10T20:38:41.637Z,54.60
2018-04-10T20:41:15.299Z,54.50
2018-04-10T20:43:49.065Z,54.40
2018-04-10T20:46:22.608Z,54.50
2018-04-10T20:48:56.278Z,54.50
2018-04-10T20:51:29.858Z,54.60
2018-04-10T20:54:04.174Z,55.20
2018-04-10T20:56:37.874Z,55.10
2018-04-10T20:59:12.498Z,55.70
2018-04-10T21:01:46.306Z,55.70
2018-04-10T21:04:20.931Z,55.40
2018-04-10T21:06:54.726Z,55.60
2018-04-10T21:09:28.496Z,55.90
2018-04-10T21:12:02.142Z,56.10
2018-04-10T21:14:35.937Z,56.40
2018-04-10T21:17:09.745Z,56.20
2018-04-10T21:19:43.263Z,55.80
2018-04-10T21:22:17.018Z,55.60
2018-04-10T21:24:51.554Z,56.60
2018-04-10T21:27:25.139Z,56.00
2018-04-10T21:29:58.779Z,56.10
2018-04-10T21:32:33.058Z,56.40
2018-04-10T21:35:06.881Z,56.40
2018-04-10T21:37:40.612Z,56.60
2018-04-10T21:40:14.309Z,56.70
2018-04-10T21:42:53.595Z,56.70
2018-04-10T21:45:27.338Z,56.50
2018-04-10T21:48:01.009Z,56.90
2018-04-10T21:50:34.531Z,57.20
2018-04-10T21:53:08.141Z,57.20
2018-04-10T21:55:41.658Z,57.10
2018-04-10T21:58:15.349Z,57.20
2018-04-10T22:00:48.990Z,57.70
2018-04-10T22:03:22.509Z,57.70
2018-04-10T22:05:56.075Z,57.90
2018-04-10T22:08:29.741Z,58.60
2018-04-10T22:11:03.354Z,58.20
2018-04-10T22:13:36.905Z,58.60
2018-04-10T22:16:10.445Z,58.30
2018-04-10T22:18:43.953Z,58.30
2018-04-10T22:21:17.752Z,58.60
2018-04-10T22:23:51.358Z,58.60
2018-04-10T22:26:25.675Z,58.80
2018-04-10T22:28:59.336Z,58.80
2018-04-10T22:31:32.894Z,58.70
2018-04-10T22:34:06.763Z,58.70
2018-04-10T22:36:40.553Z,58.60
2018-04-10T22:39:14.365Z,58.60
2018-04-10T22:41:48.662Z,58.50
2018-04-10T22:44:22.446Z,58.50
2018-04-10T22:46:55.955Z,58.50
2018-04-10T22:49:29.451Z,58.30
2018-04-10T22:52:03.187Z,58.70
2018-04-10T22:54:37.598Z,59.00
2018-04-10T22:57:11.236Z,59.00
2018-04-10T22:59:44.878Z,59.20
2018-04-10T23:02:18.608Z,59.20
2018-04-10T23:04:52.302Z,59.30
2018-04-10T23:07:26.028Z,59.30
2018-04-10T23:09:59.717Z,59.30
2018-04-10T23:12:33.335Z,59.30
2018-04-10T23:15:07.055Z,59.50
2018-04-10T23:17:40.864Z,60.00
2018-04-10T23:20:15.283Z,60.10
2018-04-10T23:22:49.694Z,60.70
2018-04-10T23:25:23.502Z,59.90
2018-04-10T23:27:57.111Z,60.40
2018-04-10T23:30:30.917Z,60.30
2018-04-10T23:33:04.931Z,60.00
2018-04-10T23:35:38.538Z,60.30
2018-04-10T23:38:12.167Z,60.70
2018-04-10T23:40:46.642Z,60.70
2018-04-10T23:43:20.364Z,60.70
2018-04-10T23:45:53.938Z,61.20
2018-04-10T23:48:27.488Z,60.70
2018-04-10T23:51:01.170Z,61.60
2018-04-10T23:53:34.851Z,61.20
2018-04-10T23:56:08.479Z,61.70
2018-04-10T23:58:42.130Z,61.40
